Time;durP1;ratioP1;P1;durP2;ratioP2;P2;SDS_P1;SDS_P2;PMS_P1;PMS_P2;Temp;Humidity;BMP_temperature;BMP_pressure;BME280_temperature;BME280_humidity;BME280_pressure;Samples;Min_cycle;Max_cycle;Signal;HPM_P1;HPM_P2
2024/01/17 00:02:58;;;;;;;97.63;49.10;;;;;;;;;;6266596;28;24444;-83
2024/01/17 00:05:59;;;;;;;102.72;51.33;;;;;;;;;;6270769;28;24439;-84
2024/01/17 00:09:01;;;;;;;204.30;91.75;;;;;;;;;;6268610;28;24476;-85
2024/01/17 00:12:04;;;;;;;154.75;75.20;;;;;;;;;;6266305;28;24422;-84
2024/01/17 00:15:07;;;;;;;164.35;77.18;;;;;;;;;;6269328;28;24786;-84
2024/01/17 00:18:10;;;;;;;156.35;77.53;;;;;;;;;;6266459;28;24420;-84
2024/01/17 00:21:11;;;;;;;111.60;56.20;;;;;;;;;;6267080;28;24917;-84
2024/01/17 00:24:13;;;;;;;88.68;44.88;;;;;;;;;;6269381;28;24415;-85
2024/01/17 00:27:16;;;;;;;75.43;40.33;;;;;;;;;;6269378;28;24529;-84
2024/01/17 00:30:18;;;;;;;71.40;38.73;;;;;;;;;;6268518;28;24685;-82
2024/01/17 00:33:21;;;;;;;70.30;38.50;;;;;;;;;;6268499;28;24492;-83
2024/01/17 00:36:23;;;;;;;72.00;38.47;;;;;;;;;;6267335;28;24462;-84
2024/01/17 00:39:25;;;;;;;68.43;38.22;;;;;;;;;;6267658;28;24465;-83
2024/01/17 00:42:27;;;;;;;64.80;37.58;;;;;;;;;;6262143;28;24827;-84
2024/01/17 00:45:29;;;;;;;70.27;37.80;;;;;;;;;;6264496;28;24515;-84
2024/01/17 00:48:32;;;;;;;69.82;37.22;;;;;;;;;;6265721;28;24424;-84
2024/01/17 00:51:35;;;;;;;65.97;35.70;;;;;;;;;;6268159;28;24811;-83
2024/01/17 00:54:36;;;;;;;66.75;37.72;;;;;;;;;;6267100;28;24438;-83
2024/01/17 00:57:38;;;;;;;67.13;37.63;;;;;;;;;;6266749;28;24434;-83
2024/01/17 01:00:40;;;;;;;67.07;36.40;;;;;;;;;;6267086;28;24524;-82
2024/01/17 01:03:43;;;;;;;75.03;39.63;;;;;;;;;;6267723;28;25122;-83
2024/01/17 01:06:44;;;;;;;76.00;40.03;;;;;;;;;;6266061;28;24438;-83
2024/01/17 01:09:46;;;;;;;75.70;40.30;;;;;;;;;;6265847;28;24411;-83
2024/01/17 01:12:48;;;;;;;76.63;40.47;;;;;;;;;;6265346;28;24434;-84
2024/01/17 01:15:50;;;;;;;73.00;39.60;;;;;;;;;;6264135;28;24420;-84
2024/01/17 01:18:53;;;;;;;70.30;38.83;;;;;;;;;;6269281;28;24419;-85
2024/01/17 01:21:54;;;;;;;72.03;39.08;;;;;;;;;;6263879;28;24415;-84
2024/01/17 01:24:56;;;;;;;73.77;39.40;;;;;;;;;;6265495;28;24431;-84
2024/01/17 01:27:58;;;;;;;80.73;41.30;;;;;;;;;;6261693;28;24660;-85
2024/01/17 01:30:59;;;;;;;79.55;40.75;;;;;;;;;;6266147;28;24498;-84
2024/01/17 01:34:03;;;;;;;79.30;41.20;;;;;;;;;;6268067;28;24454;-83
2024/01/17 01:37:04;;;;;;;79.65;41.47;;;;;;;;;;6266967;28;24438;-83
2024/01/17 01:44:03;;;;;;;81.72;40.63;;;;;;;;;;6266168;28;24676;-83
2024/01/17 01:47:07;;;;;;;78.85;40.50;;;;;;;;;;6266301;28;24431;-83
2024/01/17 01:50:11;;;;;;;77.60;41.10;;;;;;;;;;6263104;28;24447;-82
2024/01/17 01:53:12;;;;;;;81.47;42.25;;;;;;;;;;6267671;28;24423;-83
2024/01/17 01:56:15;;;;;;;82.80;41.65;;;;;;;;;;6264108;28;24826;-82
2024/01/17 01:59:19;;;;;;;80.57;40.95;;;;;;;;;;6261003;28;24423;-82
2024/01/17 02:02:20;;;;;;;80.63;40.78;;;;;;;;;;6265664;28;24436;-82
2024/01/17 02:05:24;;;;;;;79.68;41.65;;;;;;;;;;6265637;28;24588;-83
2024/01/17 02:08:26;;;;;;;84.07;42.38;;;;;;;;;;6264478;28;24611;-83
2024/01/17 02:11:29;;;;;;;80.78;40.95;;;;;;;;;;6264080;28;24430;-83
2024/01/17 02:14:30;;;;;;;81.25;40.70;;;;;;;;;;6266944;28;24423;-81
2024/01/17 02:17:32;;;;;;;79.78;41.42;;;;;;;;;;6269223;28;24659;-82
2024/01/17 02:20:35;;;;;;;82.20;41.65;;;;;;;;;;6267062;28;24855;-82
2024/01/17 02:23:37;;;;;;;87.80;43.03;;;;;;;;;;6267869;28;24463;-82
2024/01/17 02:26:40;;;;;;;84.40;42.67;;;;;;;;;;6272900;28;24533;-80
2024/01/17 02:29:45;;;;;;;80.53;39.97;;;;;;;;;;6267819;28;24504;-82
2024/01/17 02:32:48;;;;;;;76.32;39.50;;;;;;;;;;6271898;28;24810;-81
2024/01/17 02:35:50;;;;;;;82.80;41.63;;;;;;;;;;6266360;28;24454;-83
2024/01/17 02:38:52;;;;;;;75.68;38.83;;;;;;;;;;6267419;28;24454;-83
2024/01/17 02:41:55;;;;;;;72.72;37.97;;;;;;;;;;6269916;28;24884;-83
2024/01/17 02:44:56;;;;;;;73.90;37.78;;;;;;;;;;6272003;28;24424;-82
2024/01/17 02:47:58;;;;;;;74.28;39.13;;;;;;;;;;6271543;28;24442;-82
2024/01/17 02:51:00;;;;;;;73.55;38.42;;;;;;;;;;6274092;28;24422;-81
2024/01/17 02:54:02;;;;;;;73.28;38.08;;;;;;;;;;6270147;28;24420;-81
2024/01/17 02:57:05;;;;;;;74.77;39.37;;;;;;;;;;6270856;28;24419;-83
2024/01/17 03:00:08;;;;;;;73.10;39.20;;;;;;;;;;6267633;28;24415;-81
2024/01/17 03:03:10;;;;;;;70.47;38.72;;;;;;;;;;6269814;28;24427;-83
2024/01/17 03:06:12;;;;;;;69.85;38.05;;;;;;;;;;6269144;28;24408;-81
2024/01/17 03:09:14;;;;;;;72.60;39.35;;;;;;;;;;6269258;28;24527;-82
2024/01/17 03:12:17;;;;;;;68.97;39.40;;;;;;;;;;6267680;28;24882;-82
2024/01/17 03:15:19;;;;;;;73.70;40.00;;;;;;;;;;6269269;28;24619;-81
2024/01/17 03:18:21;;;;;;;71.53;40.35;;;;;;;;;;6270471;28;24427;-81
2024/01/17 03:21:22;;;;;;;71.82;40.05;;;;;;;;;;6270782;28;24424;-82
2024/01/17 03:24:24;;;;;;;71.75;40.55;;;;;;;;;;6273812;28;24475;-82
2024/01/17 03:27:27;;;;;;;66.67;39.03;;;;;;;;;;6267841;28;24443;-82
2024/01/17 03:30:30;;;;;;;74.47;41.17;;;;;;;;;;6269884;28;24436;-82
2024/01/17 03:33:33;;;;;;;73.53;40.47;;;;;;;;;;6272017;28;24415;-81
2024/01/17 03:36:35;;;;;;;69.53;39.60;;;;;;;;;;6268751;28;24516;-83
2024/01/17 03:39:36;;;;;;;75.78;41.47;;;;;;;;;;6268443;28;25311;-82
2024/01/17 03:42:39;;;;;;;73.28;41.00;;;;;;;;;;6271443;28;24979;-83
2024/01/17 03:45:41;;;;;;;68.60;41.00;;;;;;;;;;6270266;28;24474;-82
2024/01/17 03:48:43;;;;;;;75.40;42.20;;;;;;;;;;6270578;28;24620;-82
2024/01/17 03:51:45;;;;;;;71.72;40.15;;;;;;;;;;6268742;28;24644;-82
2024/01/17 03:54:46;;;;;;;70.47;40.47;;;;;;;;;;6267975;28;24419;-81
2024/01/17 03:57:49;;;;;;;68.20;39.10;;;;;;;;;;6270349;28;24623;-81
2024/01/17 04:00:52;;;;;;;68.43;38.97;;;;;;;;;;6270789;28;24423;-81
2024/01/17 04:03:54;;;;;;;69.30;40.38;;;;;;;;;;6268123;28;24434;-82
2024/01/17 04:06:56;;;;;;;65.28;38.20;;;;;;;;;;6267899;28;24433;-83
2024/01/17 04:09:57;;;;;;;67.03;39.78;;;;;;;;;;6269376;28;24411;-80
2024/01/17 04:13:01;;;;;;;68.93;40.03;;;;;;;;;;6265390;28;24419;-85
2024/01/17 04:16:03;;;;;;;67.65;39.45;;;;;;;;;;6270449;28;24469;-83
2024/01/17 04:19:04;;;;;;;71.22;42.40;;;;;;;;;;6269283;28;24438;-82
2024/01/17 04:22:06;;;;;;;69.80;41.00;;;;;;;;;;6265969;28;24431;-83
2024/01/17 04:25:08;;;;;;;67.55;40.78;;;;;;;;;;6269181;28;24427;-81
2024/01/17 04:28:12;;;;;;;70.70;40.28;;;;;;;;;;6268630;28;24451;-83
2024/01/17 04:31:22;;;;;;;71.53;42.30;;;;;;;;;;6267118;28;24439;-83
2024/01/17 04:34:24;;;;;;;73.50;41.30;;;;;;;;;;6269488;28;24428;-83
2024/01/17 04:37:25;;;;;;;69.30;40.80;;;;;;;;;;6267427;28;24474;-83
2024/01/17 04:40:27;;;;;;;71.72;42.75;;;;;;;;;;6268231;28;24857;-84
2024/01/17 04:43:30;;;;;;;69.38;41.38;;;;;;;;;;6270271;28;24431;-82
2024/01/17 04:46:32;;;;;;;72.65;41.92;;;;;;;;;;6265932;28;24423;-83
2024/01/17 04:49:34;;;;;;;77.03;42.58;;;;;;;;;;6266330;28;24412;-82
2024/01/17 04:52:35;;;;;;;73.70;42.72;;;;;;;;;;6267973;28;24422;-83
2024/01/17 04:55:39;;;;;;;73.93;43.78;;;;;;;;;;6268931;28;24420;-84
2024/01/17 04:58:43;;;;;;;74.40;42.05;;;;;;;;;;6270719;28;24558;-82
2024/01/17 05:01:45;;;;;;;75.95;43.38;;;;;;;;;;6264886;28;24709;-84
2024/01/17 05:04:46;;;;;;;77.95;43.92;;;;;;;;;;6265019;28;24422;-83
2024/01/17 05:07:48;;;;;;;79.07;45.88;;;;;;;;;;6268658;28;24849;-81
2024/01/17 05:10:50;;;;;;;76.75;43.75;;;;;;;;;;6265577;28;24427;-82
2024/01/17 05:13:53;;;;;;;79.55;45.10;;;;;;;;;;6267205;28;24427;-82
2024/01/17 05:16:54;;;;;;;80.47;45.20;;;;;;;;;;6265269;28;24441;-82
2024/01/17 05:19:56;;;;;;;79.45;45.05;;;;;;;;;;6263102;28;24841;-82
2024/01/17 05:22:58;;;;;;;83.43;45.78;;;;;;;;;;6266816;28;24427;-82
2024/01/17 05:25:59;;;;;;;74.88;43.22;;;;;;;;;;6269346;28;24415;-82
2024/01/17 05:29:02;;;;;;;77.10;44.03;;;;;;;;;;6267173;28;24431;-82
2024/01/17 05:32:05;;;;;;;75.03;43.57;;;;;;;;;;6266451;28;24435;-83
2024/01/17 05:35:08;;;;;;;75.60;43.30;;;;;;;;;;6270433;28;24834;-83
2024/01/17 05:38:09;;;;;;;77.63;45.35;;;;;;;;;;6268094;28;24486;-82
2024/01/17 05:41:11;;;;;;;78.05;44.70;;;;;;;;;;6268974;28;24422;-82
2024/01/17 05:44:14;;;;;;;78.45;44.83;;;;;;;;;;6265843;28;24422;-83
2024/01/17 05:47:16;;;;;;;79.10;45.83;;;;;;;;;;6265774;28;24829;-82
2024/01/17 05:50:18;;;;;;;79.55;45.35;;;;;;;;;;6267001;28;24813;-82
2024/01/17 05:53:20;;;;;;;75.05;45.40;;;;;;;;;;6264413;28;24430;-84
2024/01/17 05:56:21;;;;;;;75.90;44.83;;;;;;;;;;6263965;28;24860;-83
2024/01/17 05:59:25;;;;;;;75.38;43.53;;;;;;;;;;6273155;28;24423;-82
2024/01/17 06:02:27;;;;;;;74.32;43.25;;;;;;;;;;6277404;28;24450;-82
2024/01/17 06:05:28;;;;;;;78.25;45.97;;;;;;;;;;6271345;28;24439;-82
2024/01/17 06:08:30;;;;;;;77.43;45.47;;;;;;;;;;6271878;28;24434;-82
2024/01/17 06:11:32;;;;;;;75.05;44.00;;;;;;;;;;6273407;28;24494;-84
2024/01/17 06:14:35;;;;;;;74.00;43.28;;;;;;;;;;6268586;28;24416;-83
2024/01/17 06:17:37;;;;;;;72.22;42.63;;;;;;;;;;6270571;28;24490;-83
2024/01/17 06:20:38;;;;;;;69.65;40.75;;;;;;;;;;6269200;28;24500;-83
2024/01/17 06:23:40;;;;;;;74.30;44.50;;;;;;;;;;6276211;28;24611;-84
2024/01/17 06:26:42;;;;;;;72.35;42.88;;;;;;;;;;6270298;28;24845;-83
2024/01/17 06:29:45;;;;;;;74.07;43.42;;;;;;;;;;6271469;28;24434;-83
2024/01/17 06:32:47;;;;;;;72.57;42.22;;;;;;;;;;6269798;28;24428;-81
2024/01/17 06:35:49;;;;;;;76.65;45.03;;;;;;;;;;6271329;28;24423;-82
2024/01/17 06:38:52;;;;;;;74.85;44.05;;;;;;;;;;6270829;28;24469;-82
2024/01/17 06:41:54;;;;;;;75.13;44.10;;;;;;;;;;6270166;28;24429;-84
2024/01/17 06:44:57;;;;;;;73.68;43.17;;;;;;;;;;6272463;28;24431;-83
2024/01/17 06:48:01;;;;;;;73.75;42.08;;;;;;;;;;6263552;28;24834;-83
2024/01/17 06:51:03;;;;;;;72.07;41.92;;;;;;;;;;6269146;28;24487;-82
2024/01/17 06:54:05;;;;;;;71.37;41.83;;;;;;;;;;6268828;28;24506;-83
2024/01/17 06:57:08;;;;;;;72.13;43.80;;;;;;;;;;6269553;28;24450;-83
2024/01/17 07:00:13;;;;;;;76.88;44.45;;;;;;;;;;6271552;28;24423;-82
2024/01/17 07:03:15;;;;;;;77.43;45.30;;;;;;;;;;6274588;28;24639;-84
2024/01/17 07:06:17;;;;;;;74.72;43.92;;;;;;;;;;6270974;28;24434;-82
2024/01/17 07:09:18;;;;;;;72.82;42.78;;;;;;;;;;6274064;28;24845;-84
2024/01/17 07:12:20;;;;;;;70.18;42.38;;;;;;;;;;6271463;28;24438;-84
2024/01/17 07:15:25;;;;;;;75.57;45.08;;;;;;;;;;6269747;28;24510;-83
2024/01/17 07:18:26;;;;;;;76.22;44.85;;;;;;;;;;6268515;28;24427;-84
2024/01/17 07:21:28;;;;;;;75.32;44.33;;;;;;;;;;6270691;28;24411;-83
2024/01/17 07:24:30;;;;;;;70.88;41.60;;;;;;;;;;6270643;28;24419;-84
2024/01/17 07:27:32;;;;;;;72.32;42.60;;;;;;;;;;6273791;28;24423;-84
2024/01/17 07:30:35;;;;;;;66.80;40.55;;;;;;;;;;6272332;28;24442;-84
2024/01/17 07:33:36;;;;;;;72.30;41.63;;;;;;;;;;6269539;28;24631;-83
2024/01/17 07:36:38;;;;;;;70.30;41.97;;;;;;;;;;6269237;28;24422;-83
2024/01/17 07:39:40;;;;;;;69.00;40.90;;;;;;;;;;6263108;28;24454;-82
2024/01/17 07:45:47;;;;;;;65.45;40.28;;;;;;;;;;6226081;28;20762;-78
2024/01/17 07:48:49;;;;;;;69.20;40.50;;;;;;;;;;6226813;28;24440;-79
2024/01/17 07:51:51;;;;;;;69.03;40.67;;;;;;;;;;6226224;28;25281;-79
2024/01/17 07:54:53;;;;;;;68.35;41.80;;;;;;;;;;6227698;28;24472;-78
2024/01/17 07:57:55;;;;;;;71.03;40.90;;;;;;;;;;6227184;28;24424;-78
2024/01/17 08:00:58;;;;;;;63.47;39.85;;;;;;;;;;6215435;28;24432;-78
2024/01/17 08:04:00;;;;;;;65.18;40.13;;;;;;;;;;6225132;28;24673;-78
2024/01/17 08:07:02;;;;;;;68.88;40.38;;;;;;;;;;6227203;28;24439;-79
2024/01/17 08:10:06;;;;;;;63.67;39.43;;;;;;;;;;6228361;28;24546;-78
2024/01/17 08:13:09;;;;;;;68.03;40.35;;;;;;;;;;6227110;28;24901;-77
2024/01/17 08:16:13;;;;;;;69.97;42.88;;;;;;;;;;6226722;28;24451;-78
2024/01/17 08:19:15;;;;;;;65.03;41.58;;;;;;;;;;6227903;28;24486;-78
2024/01/17 08:22:17;;;;;;;63.53;40.00;;;;;;;;;;6209695;28;24444;-78
2024/01/17 08:25:19;;;;;;;69.28;40.95;;;;;;;;;;6226625;28;24660;-78
2024/01/17 08:28:21;;;;;;;64.63;39.60;;;;;;;;;;6227447;28;24788;-78
2024/01/17 08:31:24;;;;;;;64.13;38.67;;;;;;;;;;6225519;28;24582;-79
2024/01/17 08:34:26;;;;;;;64.03;39.47;;;;;;;;;;6226174;28;24547;-78
2024/01/17 08:37:29;;;;;;;63.00;39.17;;;;;;;;;;6224267;28;24416;-78
2024/01/17 08:40:33;;;;;;;65.18;39.63;;;;;;;;;;6227180;28;24528;-78
2024/01/17 08:43:35;;;;;;;63.88;39.10;;;;;;;;;;6225957;28;24440;-80
2024/01/17 08:46:44;;;;;;;58.27;36.87;;;;;;;;;;6220917;28;24821;-78
2024/01/17 08:49:47;;;;;;;62.37;37.73;;;;;;;;;;6226996;28;24415;-78
2024/01/17 08:52:49;;;;;;;64.78;37.55;;;;;;;;;;6226139;28;24478;-78
2024/01/17 08:55:51;;;;;;;61.87;38.77;;;;;;;;;;6227056;28;24642;-78
2024/01/17 08:58:53;;;;;;;62.80;37.60;;;;;;;;;;6225468;28;24912;-78
2024/01/17 09:01:56;;;;;;;58.67;35.30;;;;;;;;;;6226749;28;24417;-78
2024/01/17 09:04:58;;;;;;;58.67;35.22;;;;;;;;;;6226298;28;24436;-78
2024/01/17 09:08:18;;;;;;;57.65;35.10;;;;;;;;;;6225401;28;24430;-78
2024/01/17 09:15:17;;;;;;;57.90;35.40;;;;;;;;;;6225890;28;24417;-77
2024/01/17 09:18:21;;;;;;;63.03;37.55;;;;;;;;;;6226691;28;24424;-78
2024/01/17 09:21:23;;;;;;;63.10;38.17;;;;;;;;;;6226316;28;24435;-79
2024/01/17 09:25:17;;;;;;;59.97;37.20;;;;;;;;;;6225911;28;24658;-79
2024/01/17 09:28:19;;;;;;;59.28;36.95;;;;;;;;;;6226596;28;24400;-78
2024/01/17 09:31:21;;;;;;;59.05;34.60;;;;;;;;;;6224308;28;24619;-78
2024/01/17 09:34:24;;;;;;;59.58;36.35;;;;;;;;;;6225334;28;24459;-79
2024/01/17 09:37:26;;;;;;;56.67;35.40;;;;;;;;;;6225614;28;24416;-78
2024/01/17 09:40:28;;;;;;;53.93;33.93;;;;;;;;;;6223658;28;24750;-77
2024/01/17 09:43:30;;;;;;;53.63;33.58;;;;;;;;;;6225376;28;24514;-78
2024/01/17 09:46:34;;;;;;;52.13;31.52;;;;;;;;;;6224358;28;24455;-78
2024/01/17 09:49:39;;;;;;;50.90;31.15;;;;;;;;;;6225844;28;24409;-78
2024/01/17 09:52:42;;;;;;;49.85;30.08;;;;;;;;;;6225450;28;24755;-78
2024/01/17 09:55:45;;;;;;;42.47;25.50;;;;;;;;;;6226968;28;25258;-78
2024/01/17 09:58:50;;;;;;;38.00;21.90;;;;;;;;;;6226785;28;24413;-78
2024/01/17 10:01:51;;;;;;;34.60;20.80;;;;;;;;;;6225381;28;24887;-78
2024/01/17 10:04:57;;;;;;;29.10;17.83;;;;;;;;;;6226650;28;24431;-77
2024/01/17 10:08:00;;;;;;;26.75;16.98;;;;;;;;;;6201454;28;24514;-78
2024/01/17 10:11:02;;;;;;;30.15;17.58;;;;;;;;;;6225919;28;24428;-78
2024/01/17 10:14:05;;;;;;;33.13;19.35;;;;;;;;;;6226104;28;24642;-78
2024/01/17 10:17:07;;;;;;;31.65;20.00;;;;;;;;;;6223648;28;24431;-78
2024/01/17 10:20:11;;;;;;;32.83;20.38;;;;;;;;;;6227218;28;24429;-78
2024/01/17 10:23:14;;;;;;;31.92;19.98;;;;;;;;;;6225459;28;24424;-78
2024/01/17 10:26:16;;;;;;;33.65;21.30;;;;;;;;;;6227357;28;24424;-77
2024/01/17 10:29:18;;;;;;;33.15;20.33;;;;;;;;;;6225886;28;24459;-77
2024/01/17 10:32:20;;;;;;;32.65;20.40;;;;;;;;;;6225992;28;24511;-78
2024/01/17 10:35:24;;;;;;;33.97;21.00;;;;;;;;;;6225939;28;24819;-78
2024/01/17 10:38:31;;;;;;;37.00;22.10;;;;;;;;;;6225301;28;24620;-78
2024/01/17 10:41:33;;;;;;;36.97;23.20;;;;;;;;;;6225380;28;24523;-79
2024/01/17 10:44:35;;;;;;;41.15;24.88;;;;;;;;;;6225954;28;24512;-78
2024/01/17 10:47:37;;;;;;;40.97;25.30;;;;;;;;;;6224294;28;24840;-79
2024/01/17 10:50:40;;;;;;;40.23;24.63;;;;;;;;;;6225220;28;24495;-78
2024/01/17 10:53:43;;;;;;;38.83;23.57;;;;;;;;;;6227078;28;24864;-78
2024/01/17 10:56:49;;;;;;;39.83;24.38;;;;;;;;;;6229749;28;24511;-78
2024/01/17 10:59:51;;;;;;;38.97;24.20;;;;;;;;;;6230347;28;24423;-78
2024/01/17 11:02:53;;;;;;;39.53;25.65;;;;;;;;;;6227386;28;24458;-78
2024/01/17 11:05:57;;;;;;;40.53;24.65;;;;;;;;;;6229337;28;24436;-78
2024/01/17 11:08:59;;;;;;;43.17;25.17;;;;;;;;;;6229801;28;24416;-78
2024/01/17 11:12:03;;;;;;;42.65;25.50;;;;;;;;;;6229588;28;24805;-79
2024/01/17 11:15:06;;;;;;;40.90;24.80;;;;;;;;;;6228098;28;24626;-78
2024/01/17 11:18:14;;;;;;;42.35;25.52;;;;;;;;;;6227908;28;20755;-79
2024/01/17 11:21:17;;;;;;;41.40;25.07;;;;;;;;;;6230584;28;24491;-78
2024/01/17 11:24:27;;;;;;;39.87;24.43;;;;;;;;;;6228225;28;24492;-78
2024/01/17 11:27:35;;;;;;;39.13;24.27;;;;;;;;;;6229591;28;24478;-79
2024/01/17 11:30:49;;;;;;;39.67;24.27;;;;;;;;;;6229482;28;24436;-79
2024/01/17 11:33:52;;;;;;;41.83;25.40;;;;;;;;;;6227942;28;24638;-79
2024/01/17 11:36:55;;;;;;;43.67;26.58;;;;;;;;;;6228934;28;24432;-79
2024/01/17 11:39:57;;;;;;;44.95;26.17;;;;;;;;;;6228062;28;24428;-79
2024/01/17 11:42:59;;;;;;;45.33;27.15;;;;;;;;;;6227182;28;24658;-77
2024/01/17 11:46:03;;;;;;;43.35;26.42;;;;;;;;;;6227193;28;24452;-79
2024/01/17 11:49:05;;;;;;;40.75;25.85;;;;;;;;;;6229282;28;24432;-78
2024/01/17 11:52:26;;;;;;;42.33;26.20;;;;;;;;;;6228426;28;24435;-79
2024/01/17 11:55:31;;;;;;;44.57;27.63;;;;;;;;;;6211907;28;24431;-80
2024/01/17 11:58:40;;;;;;;42.97;26.80;;;;;;;;;;6225897;28;24439;-80
2024/01/17 12:01:43;;;;;;;40.28;26.33;;;;;;;;;;6227691;28;24427;-80
2024/01/17 12:04:45;;;;;;;43.03;27.13;;;;;;;;;;6228342;28;24417;-78
2024/01/17 12:07:49;;;;;;;44.25;26.83;;;;;;;;;;6226960;28;24424;-79
2024/01/17 12:10:53;;;;;;;40.53;25.27;;;;;;;;;;6225405;28;24435;-79
2024/01/17 12:13:55;;;;;;;37.70;23.90;;;;;;;;;;6227116;28;24450;-80
2024/01/17 12:16:57;;;;;;;36.30;22.90;;;;;;;;;;6226901;28;24416;-80
2024/01/17 12:19:59;;;;;;;42.10;24.73;;;;;;;;;;6228022;28;24439;-79
2024/01/17 12:23:02;;;;;;;38.53;22.60;;;;;;;;;;6228187;28;24432;-79
2024/01/17 12:26:05;;;;;;;40.80;24.83;;;;;;;;;;6228104;28;24447;-79
2024/01/17 12:29:08;;;;;;;40.22;24.35;;;;;;;;;;6228188;28;24483;-80
2024/01/17 12:32:10;;;;;;;37.70;24.33;;;;;;;;;;6227620;28;24467;-80
2024/01/17 12:35:12;;;;;;;37.00;24.27;;;;;;;;;;6226638;28;24504;-80
2024/01/17 12:38:15;;;;;;;39.60;24.50;;;;;;;;;;6227988;28;24421;-80
2024/01/17 12:41:17;;;;;;;39.83;23.80;;;;;;;;;;6227173;28;24844;-80
2024/01/17 12:44:19;;;;;;;36.15;22.50;;;;;;;;;;6227631;28;24436;-80
2024/01/17 12:47:21;;;;;;;35.10;22.08;;;;;;;;;;6226697;28;24906;-80
2024/01/17 12:50:25;;;;;;;34.78;22.20;;;;;;;;;;6227335;28;24451;-80
2024/01/17 12:53:29;;;;;;;35.53;22.98;;;;;;;;;;6226797;28;24824;-79
2024/01/17 12:56:31;;;;;;;35.97;22.67;;;;;;;;;;6226808;28;24478;-80
2024/01/17 12:59:32;;;;;;;33.45;22.08;;;;;;;;;;6227075;28;24417;-79
2024/01/17 13:02:35;;;;;;;38.28;23.98;;;;;;;;;;6225736;28;24486;-80
2024/01/17 13:05:37;;;;;;;37.05;23.80;;;;;;;;;;6226147;28;24459;-80
2024/01/17 13:08:41;;;;;;;36.63;23.65;;;;;;;;;;6226569;28;24439;-79
2024/01/17 13:11:48;;;;;;;38.00;23.88;;;;;;;;;;6227259;28;24972;-79
2024/01/17 13:14:50;;;;;;;33.97;21.98;;;;;;;;;;6227941;28;24544;-79
2024/01/17 13:17:52;;;;;;;40.08;24.05;;;;;;;;;;6227813;28;24551;-79
2024/01/17 13:21:10;;;;;;;40.38;24.50;;;;;;;;;;6227323;28;24435;-78
2024/01/17 13:24:13;;;;;;;37.47;25.17;;;;;;;;;;6226630;28;24840;-79
2024/01/17 13:27:17;;;;;;;38.70;24.23;;;;;;;;;;6226478;28;24471;-79
2024/01/17 13:30:21;;;;;;;39.28;24.63;;;;;;;;;;6226112;28;24455;-79
2024/01/17 13:33:24;;;;;;;39.43;25.23;;;;;;;;;;6228288;28;24496;-80
2024/01/17 13:36:27;;;;;;;37.33;24.02;;;;;;;;;;6224891;28;24432;-80
2024/01/17 13:39:30;;;;;;;36.20;23.15;;;;;;;;;;6223782;28;24646;-79
2024/01/17 13:42:32;;;;;;;36.75;23.23;;;;;;;;;;6219044;28;24459;-80
2024/01/17 13:45:35;;;;;;;35.80;21.95;;;;;;;;;;6227307;28;24499;-80
2024/01/17 13:48:39;;;;;;;34.00;20.20;;;;;;;;;;6224729;28;24498;-79
2024/01/17 13:51:44;;;;;;;30.70;19.77;;;;;;;;;;6224359;28;24522;-80
2024/01/17 13:54:48;;;;;;;31.08;20.35;;;;;;;;;;6227593;28;24428;-79
2024/01/17 13:57:50;;;;;;;32.13;20.73;;;;;;;;;;6226602;28;24642;-80
2024/01/17 14:00:57;;;;;;;33.13;21.53;;;;;;;;;;6226493;28;24424;-80
2024/01/17 14:03:59;;;;;;;30.23;19.60;;;;;;;;;;6224085;28;24431;-80
2024/01/17 14:07:01;;;;;;;30.45;18.95;;;;;;;;;;6225071;28;24444;-79
2024/01/17 14:10:07;;;;;;;33.60;20.00;;;;;;;;;;6223829;28;25130;-79
2024/01/17 14:13:09;;;;;;;31.55;19.77;;;;;;;;;;6226412;28;24646;-80
2024/01/17 14:16:12;;;;;;;34.45;21.25;;;;;;;;;;6227308;28;24437;-80
2024/01/17 14:19:14;;;;;;;34.42;19.98;;;;;;;;;;6225385;28;24868;-80
2024/01/17 14:22:15;;;;;;;31.05;19.63;;;;;;;;;;6230888;28;24427;-80
2024/01/17 14:25:20;;;;;;;34.37;20.70;;;;;;;;;;6228527;28;24422;-79
2024/01/17 14:28:23;;;;;;;35.53;21.27;;;;;;;;;;6229663;28;24450;-80
2024/01/17 14:31:25;;;;;;;33.35;20.75;;;;;;;;;;6227152;28;24491;-79
2024/01/17 14:34:27;;;;;;;33.30;20.85;;;;;;;;;;6229349;28;24424;-79
2024/01/17 14:37:30;;;;;;;32.42;20.42;;;;;;;;;;6226944;28;24876;-79
2024/01/17 14:40:33;;;;;;;36.33;21.60;;;;;;;;;;6226749;28;24467;-79
2024/01/17 14:43:36;;;;;;;35.72;21.73;;;;;;;;;;6228880;28;24868;-79
2024/01/17 14:46:38;;;;;;;35.92;21.58;;;;;;;;;;6211521;28;24432;-78
2024/01/17 14:49:40;;;;;;;36.70;22.27;;;;;;;;;;6229330;28;24420;-79
2024/01/17 14:52:42;;;;;;;38.40;22.53;;;;;;;;;;6226418;28;24695;-79
2024/01/17 14:55:46;;;;;;;41.03;22.98;;;;;;;;;;6227667;28;24427;-79
2024/01/17 14:58:48;;;;;;;41.07;23.00;;;;;;;;;;6225328;28;24812;-79
2024/01/17 15:01:50;;;;;;;41.65;22.35;;;;;;;;;;6227616;28;24424;-79
2024/01/17 15:04:52;;;;;;;43.13;23.92;;;;;;;;;;6226640;28;24443;-78
2024/01/17 15:07:54;;;;;;;38.50;23.70;;;;;;;;;;6225998;28;24536;-80
2024/01/17 15:10:57;;;;;;;38.27;23.60;;;;;;;;;;6229894;28;24416;-80
2024/01/17 15:13:59;;;;;;;43.83;25.63;;;;;;;;;;6230912;28;24483;-79
2024/01/17 15:17:01;;;;;;;41.88;25.35;;;;;;;;;;6220163;28;24435;-79
2024/01/17 15:20:05;;;;;;;37.55;23.90;;;;;;;;;;6224233;28;24519;-79
2024/01/17 15:23:08;;;;;;;37.70;23.60;;;;;;;;;;6221184;28;24421;-79
2024/01/17 15:26:12;;;;;;;38.25;23.58;;;;;;;;;;6223582;28;24454;-80
2024/01/17 15:29:14;;;;;;;35.65;22.85;;;;;;;;;;6225703;28;24875;-79
2024/01/17 15:32:16;;;;;;;37.50;23.30;;;;;;;;;;6224426;28;24429;-80
2024/01/17 15:35:18;;;;;;;39.20;23.67;;;;;;;;;;6225842;28;24426;-80
2024/01/17 15:38:20;;;;;;;40.53;24.93;;;;;;;;;;6218250;28;24491;-80
2024/01/17 15:41:23;;;;;;;71.18;40.30;;;;;;;;;;6226395;28;24663;-80
2024/01/17 15:44:26;;;;;;;66.35;35.55;;;;;;;;;;6225902;28;24432;-80
2024/01/17 15:47:28;;;;;;;58.80;33.33;;;;;;;;;;6224932;28;25236;-80
2024/01/17 15:50:29;;;;;;;45.75;27.50;;;;;;;;;;6219841;28;24809;-80
2024/01/17 15:53:33;;;;;;;75.88;41.33;;;;;;;;;;6223219;28;24474;-80
2024/01/17 15:56:37;;;;;;;146.00;70.45;;;;;;;;;;6222173;28;24856;-80
2024/01/17 15:59:41;;;;;;;88.43;45.88;;;;;;;;;;6225022;28;24612;-80
2024/01/17 16:02:43;;;;;;;95.35;49.65;;;;;;;;;;6221390;28;24432;-80
2024/01/17 16:05:45;;;;;;;129.17;62.33;;;;;;;;;;6228307;28;24439;-79
2024/01/17 16:08:47;;;;;;;72.60;38.78;;;;;;;;;;6229412;28;24424;-80
2024/01/17 16:11:52;;;;;;;51.13;30.00;;;;;;;;;;6223177;28;24436;-80
2024/01/17 16:14:55;;;;;;;46.28;28.33;;;;;;;;;;6229199;28;24479;-79
2024/01/17 16:17:57;;;;;;;43.95;27.08;;;;;;;;;;6225411;28;24463;-79
2024/01/17 16:20:58;;;;;;;40.53;25.47;;;;;;;;;;6226565;28;24423;-80
2024/01/17 16:24:00;;;;;;;40.08;25.23;;;;;;;;;;6227573;28;24844;-80
2024/01/17 16:27:04;;;;;;;40.88;25.65;;;;;;;;;;6228529;28;24427;-80
2024/01/17 16:30:07;;;;;;;38.72;24.90;;;;;;;;;;6227643;28;24440;-79
2024/01/17 16:33:09;;;;;;;39.53;24.58;;;;;;;;;;6227409;28;24436;-80
2024/01/17 16:36:11;;;;;;;39.97;25.20;;;;;;;;;;6228379;28;24423;-80
2024/01/17 16:39:17;;;;;;;37.75;24.45;;;;;;;;;;6227069;28;24436;-80
2024/01/17 16:42:20;;;;;;;36.90;23.88;;;;;;;;;;6224598;28;24634;-80
2024/01/17 16:45:22;;;;;;;37.67;23.40;;;;;;;;;;6227442;28;24432;-80
2024/01/17 16:48:24;;;;;;;39.72;24.70;;;;;;;;;;6227078;28;24512;-80
2024/01/17 16:51:26;;;;;;;38.53;25.00;;;;;;;;;;6226626;28;24424;-80
2024/01/17 16:54:29;;;;;;;38.47;24.45;;;;;;;;;;6225076;28;24440;-79
2024/01/17 16:57:32;;;;;;;35.47;23.53;;;;;;;;;;6225284;28;24439;-80
2024/01/17 17:00:35;;;;;;;35.67;22.50;;;;;;;;;;6228243;28;24423;-80
2024/01/17 17:03:36;;;;;;;33.95;22.00;;;;;;;;;;6226229;28;24871;-80
2024/01/17 17:06:38;;;;;;;32.95;21.63;;;;;;;;;;6225754;28;24488;-75
2024/01/17 17:09:40;;;;;;;31.60;21.40;;;;;;;;;;6226504;28;24427;-76
2024/01/17 17:12:43;;;;;;;33.72;21.90;;;;;;;;;;6222261;28;24911;-74
2024/01/17 17:15:45;;;;;;;33.45;22.38;;;;;;;;;;6227510;28;24840;-75
2024/01/17 17:18:47;;;;;;;32.42;22.13;;;;;;;;;;6225179;28;24543;-75
2024/01/17 17:21:49;;;;;;;34.30;23.30;;;;;;;;;;6225119;28;24439;-75
2024/01/17 17:24:51;;;;;;;40.78;25.70;;;;;;;;;;6226967;28;24428;-75
2024/01/17 17:27:54;;;;;;;38.75;25.42;;;;;;;;;;6221059;28;24475;-75
2024/01/17 17:30:56;;;;;;;44.90;27.02;;;;;;;;;;6224507;28;24439;-75
2024/01/17 17:33:58;;;;;;;46.38;27.00;;;;;;;;;;6221527;28;24837;-75
2024/01/17 17:37:00;;;;;;;42.55;26.27;;;;;;;;;;6223957;28;24785;-75
2024/01/17 17:40:04;;;;;;;43.85;26.13;;;;;;;;;;6225221;28;24463;-75
2024/01/17 17:43:07;;;;;;;43.40;26.23;;;;;;;;;;6224090;28;24449;-75
2024/01/17 17:46:09;;;;;;;43.97;26.42;;;;;;;;;;6226526;28;24437;-75
2024/01/17 17:49:13;;;;;;;44.25;26.75;;;;;;;;;;6226038;28;24412;-75
2024/01/17 17:52:15;;;;;;;43.00;26.38;;;;;;;;;;6224751;28;24889;-75
2024/01/17 17:55:16;;;;;;;42.07;25.80;;;;;;;;;;6214641;28;24435;-75